createdAt,value
2023-04-14T00:02:23.932Z,0.53
2023-04-14T00:04:54.565Z,0.60
2023-04-14T00:07:21.865Z,0.40
2023-04-14T00:09:49.104Z,0.40
2023-04-14T00:12:16.672Z,0.40
2023-04-14T00:14:43.992Z,1.43
2023-04-14T00:17:11.798Z,0.50
2023-04-14T00:19:39.003Z,0.60
2023-04-14T00:22:06.192Z,0.50
2023-04-14T00:24:35.884Z,0.67
2023-04-14T00:27:02.975Z,0.50
2023-04-14T00:29:30.262Z,1.30
2023-04-14T00:31:57.401Z,0.63
2023-04-14T00:34:24.496Z,1.33
2023-04-14T00:36:51.608Z,1.33
2023-04-14T00:39:19.002Z,0.40
2023-04-14T00:41:46.128Z,0.60
2023-04-14T00:44:13.750Z,0.60
2023-04-14T00:46:41.728Z,0.40
2023-04-14T00:49:09.150Z,1.47
2023-04-14T00:51:36.989Z,0.77
2023-04-14T00:54:06.407Z,0.80
2023-04-14T00:56:34.147Z,0.77
2023-04-14T00:59:02.647Z,1.03
2023-04-14T01:01:30.049Z,0.50
2023-04-14T01:03:58.613Z,0.80
2023-04-14T01:06:27.113Z,1.03
2023-04-14T01:08:55.323Z,1.20
2023-04-14T01:11:47.255Z,0.70
2023-04-14T01:14:20.715Z,0.40
2023-04-14T01:16:50.528Z,0.50
2023-04-14T01:19:36.173Z,0.57
2023-04-14T01:25:02.647Z,1.83
2023-04-14T01:27:36.657Z,0.70
2023-04-14T01:30:11.602Z,1.23
2023-04-14T01:35:35.849Z,0.50
2023-04-14T01:38:09.554Z,0.83
2023-04-14T01:40:37.961Z,0.57
2023-04-14T01:43:09.460Z,2.70
2023-04-14T01:45:42.729Z,1.03
2023-04-14T01:48:12.272Z,0.83
2023-04-14T01:50:41.821Z,0.90
2023-04-14T01:53:11.769Z,0.60
2023-04-14T01:55:39.918Z,0.80
2023-04-14T01:58:07.745Z,0.60
2023-04-14T02:00:36.425Z,0.60
2023-04-14T02:03:04.831Z,0.90
2023-04-14T02:05:32.794Z,0.93
2023-04-14T02:08:00.425Z,0.70
2023-04-14T02:10:28.318Z,1.20
2023-04-14T02:12:57.876Z,0.60
2023-04-14T02:15:26.088Z,0.60
2023-04-14T02:17:53.480Z,1.10
2023-04-14T02:20:21.865Z,1.80
2023-04-14T02:22:49.681Z,0.50
2023-04-14T02:25:17.133Z,0.60
2023-04-14T02:27:53.786Z,0.70
2023-04-14T02:30:27.073Z,0.50
2023-04-14T02:32:57.778Z,0.60
2023-04-14T02:35:26.995Z,0.50
2023-04-14T02:38:01.525Z,0.80
2023-04-14T02:40:31.786Z,0.60
2023-04-14T02:43:01.805Z,0.80
2023-04-14T02:45:31.548Z,0.80
2023-04-14T02:48:00.573Z,0.70
2023-04-14T02:50:29.445Z,0.50
2023-04-14T02:52:57.229Z,1.07
2023-04-14T02:55:24.988Z,0.70
2023-04-14T02:57:53.130Z,0.60
2023-04-14T03:00:21.434Z,0.60
2023-04-14T03:02:49.070Z,0.57
2023-04-14T03:05:16.631Z,0.60
2023-04-14T03:07:44.047Z,0.70
2023-04-14T03:10:15.445Z,0.60
2023-04-14T03:12:43.108Z,1.27
2023-04-14T03:15:11.003Z,0.80
2023-04-14T03:17:38.321Z,0.90
2023-04-14T03:20:05.788Z,0.80
2023-04-14T03:22:38.625Z,0.67
2023-04-14T03:25:06.761Z,1.63
2023-04-14T03:27:37.225Z,0.77
2023-04-14T03:30:08.141Z,0.80
2023-04-14T03:32:42.180Z,1.23
2023-04-14T03:35:12.969Z,0.80
2023-04-14T03:37:40.862Z,0.63
2023-04-14T03:40:12.535Z,0.60
2023-04-14T03:42:44.718Z,1.20
2023-04-14T03:45:13.131Z,0.70
2023-04-14T03:47:40.511Z,0.70
2023-04-14T03:50:10.192Z,1.40
2023-04-14T03:52:38.984Z,0.70
2023-04-14T03:55:07.248Z,0.70
2023-04-14T03:57:35.925Z,0.70
2023-04-14T04:00:05.114Z,0.60
2023-04-14T04:02:32.956Z,2.10
2023-04-14T04:05:01.989Z,0.70
2023-04-14T04:07:31.092Z,0.60
2023-04-14T04:09:59.160Z,0.50
2023-04-14T04:12:26.487Z,0.70
2023-04-14T04:14:53.733Z,0.60
2023-04-14T04:17:24.180Z,0.60
2023-04-14T04:19:51.912Z,0.60
2023-04-14T04:22:21.309Z,0.60
2023-04-14T04:24:49.353Z,0.73
2023-04-14T04:27:27.103Z,1.37
2023-04-14T04:29:54.822Z,1.27
2023-04-14T04:32:22.464Z,0.97
2023-04-14T04:34:51.060Z,1.43
2023-04-14T04:37:19.577Z,1.03
2023-04-14T04:39:48.617Z,0.97
2023-04-14T04:42:16.579Z,0.97
2023-04-14T04:44:43.918Z,1.03
2023-04-14T04:47:13.019Z,0.60
2023-04-14T04:49:40.348Z,0.60
2023-04-14T04:52:07.562Z,0.83
2023-04-14T04:54:35.316Z,0.57
2023-04-14T04:57:02.882Z,0.70
2023-04-14T04:59:30.235Z,0.60
2023-04-14T05:01:57.912Z,0.80
2023-04-14T05:04:25.240Z,0.80
2023-04-14T05:06:53.036Z,0.80
2023-04-14T05:09:20.292Z,0.60
2023-04-14T05:11:47.527Z,0.60
2023-04-14T05:14:14.637Z,0.70
2023-04-14T05:16:41.748Z,0.90
2023-04-14T05:19:09.480Z,0.60
2023-04-14T05:21:36.635Z,0.80
2023-04-14T05:24:03.881Z,0.70
2023-04-14T05:26:51.704Z,0.60
2023-04-14T05:29:19.097Z,0.57
2023-04-14T05:31:46.271Z,0.70
2023-04-14T05:34:15.452Z,1.00
2023-04-14T05:36:43.597Z,0.70
2023-04-14T05:39:10.752Z,0.70
2023-04-14T05:41:37.966Z,1.07
2023-04-14T05:44:05.431Z,0.53
2023-04-14T05:46:32.602Z,0.60
2023-04-14T05:49:01.644Z,0.70
2023-04-14T05:51:29.039Z,0.70
2023-04-14T05:53:56.297Z,1.13
2023-04-14T05:56:25.079Z,0.73
2023-04-14T05:58:54.280Z,0.60
2023-04-14T06:01:21.418Z,0.60
2023-04-14T06:03:48.805Z,1.33
2023-04-14T06:06:16.082Z,0.63
2023-04-14T06:08:43.277Z,0.57
2023-04-14T06:11:10.578Z,0.50
2023-04-14T06:13:37.794Z,0.80
2023-04-14T06:16:05.008Z,0.50
2023-04-14T06:18:32.261Z,0.60
2023-04-14T06:20:59.928Z,0.60
2023-04-14T06:23:27.138Z,0.70
2023-04-14T06:25:55.018Z,1.67
2023-04-14T06:28:24.085Z,0.67
2023-04-14T06:30:51.587Z,0.50
2023-04-14T06:33:19.271Z,1.37
2023-04-14T06:35:46.418Z,1.73
2023-04-14T06:38:13.992Z,1.17
2023-04-14T06:40:41.570Z,2.23
2023-04-14T06:43:12.534Z,0.70
2023-04-14T06:45:39.727Z,2.33
2023-04-14T06:48:07.970Z,1.87
2023-04-14T06:50:35.369Z,0.83
2023-04-14T06:53:02.552Z,2.50
2023-04-14T06:55:29.935Z,1.27
2023-04-14T06:57:57.062Z,0.70
2023-04-14T07:00:24.301Z,0.87
2023-04-14T07:02:51.923Z,0.87
2023-04-14T07:05:19.799Z,0.70
2023-04-14T07:07:46.996Z,0.87
2023-04-14T07:10:14.313Z,2.00
2023-04-14T07:12:41.689Z,1.07
2023-04-14T07:15:08.999Z,1.40
2023-04-14T07:17:39.265Z,1.17
2023-04-14T07:20:06.922Z,0.77
2023-04-14T07:22:35.327Z,1.67
2023-04-14T07:25:02.617Z,0.57
2023-04-14T07:27:31.768Z,1.27
2023-04-14T07:29:59.231Z,0.87
2023-04-14T07:32:26.654Z,1.13
2023-04-14T07:34:53.800Z,1.43
2023-04-14T07:37:21.057Z,0.87
2023-04-14T07:39:48.464Z,0.60
2023-04-14T07:42:16.264Z,1.73
2023-04-14T07:44:43.507Z,3.27
2023-04-14T07:47:11.503Z,1.50
2023-04-14T07:49:38.839Z,1.63
2023-04-14T07:52:06.025Z,1.37
2023-04-14T07:54:33.225Z,1.97
2023-04-14T07:57:00.744Z,2.53
2023-04-14T07:59:28.045Z,1.10
2023-04-14T08:01:55.322Z,1.90
2023-04-14T08:04:22.994Z,1.07
2023-04-14T08:06:50.467Z,0.63
2023-04-14T08:09:17.652Z,1.43
2023-04-14T08:11:44.764Z,1.50
2023-04-14T08:14:11.924Z,2.23
2023-04-14T08:16:39.141Z,2.50
2023-04-14T08:19:06.368Z,2.33
2023-04-14T08:21:33.918Z,1.50
2023-04-14T08:24:01.461Z,0.90
2023-04-14T08:26:28.662Z,0.57
2023-04-14T08:28:56.042Z,1.67
2023-04-14T08:31:24.481Z,1.90
2023-04-14T08:33:52.938Z,2.10
2023-04-14T08:36:20.954Z,2.70
2023-04-14T08:38:48.156Z,1.53
2023-04-14T08:41:16.286Z,1.40
2023-04-14T08:43:43.501Z,4.00
2023-04-14T08:46:14.195Z,1.43
2023-04-14T08:48:41.597Z,1.97
2023-04-14T08:51:17.682Z,1.33
2023-04-14T08:53:45.935Z,0.77
2023-04-14T08:56:15.142Z,1.77
2023-04-14T08:58:42.724Z,2.77
2023-04-14T09:01:10.103Z,2.50
2023-04-14T09:03:40.635Z,2.43
2023-04-14T09:06:07.933Z,2.50
2023-04-14T09:08:36.233Z,2.03
2023-04-14T09:11:04.066Z,4.30
2023-04-14T09:13:31.657Z,1.63
2023-04-14T09:16:00.050Z,2.30
2023-04-14T09:18:28.217Z,1.47
2023-04-14T09:21:31.353Z,2.50
2023-04-14T09:23:43.042Z,3.10
2023-04-14T09:26:10.758Z,2.47
2023-04-14T09:28:38.156Z,3.27
2023-04-14T09:31:06.085Z,2.07
2023-04-14T09:33:34.356Z,1.07
2023-04-14T09:36:01.597Z,1.77
2023-04-14T09:38:39.299Z,2.67
2023-04-14T09:41:07.080Z,2.70
2023-04-14T09:43:34.351Z,2.60
2023-04-14T09:46:11.539Z,2.20
2023-04-14T09:48:50.647Z,2.97
2023-04-14T09:51:18.381Z,2.03
2023-04-14T09:53:48.502Z,3.10
2023-04-14T09:56:15.972Z,4.30
2023-04-14T09:58:44.242Z,3.97
2023-04-14T10:01:18.194Z,1.57
2023-04-14T10:03:46.965Z,3.97
2023-04-14T10:06:14.179Z,2.10
2023-04-14T10:08:42.334Z,3.83
2023-04-14T10:11:18.706Z,3.43
2023-04-14T10:13:50.273Z,3.20
2023-04-14T10:16:18.123Z,5.90
2023-04-14T10:18:46.014Z,1.83
2023-04-14T10:21:13.972Z,2.60
2023-04-14T10:23:42.118Z,2.27
2023-04-14T10:26:10.428Z,2.63
2023-04-14T10:28:38.898Z,1.93
2023-04-14T10:31:09.127Z,2.57
2023-04-14T10:33:39.484Z,2.20
2023-04-14T10:36:06.779Z,2.97
2023-04-14T10:38:44.629Z,1.63
2023-04-14T10:41:12.305Z,1.63
2023-04-14T10:43:40.384Z,1.00
2023-04-14T10:46:08.997Z,1.87
2023-04-14T10:48:39.787Z,1.60
2023-04-14T10:51:09.227Z,2.20
2023-04-14T10:53:37.745Z,2.67
2023-04-14T10:56:06.137Z,2.27
2023-04-14T10:58:35.418Z,2.10
2023-04-14T11:01:22.917Z,3.13
2023-04-14T11:03:51.106Z,3.40
2023-04-14T11:06:50.498Z,3.20
2023-04-14T11:09:27.591Z,3.00
2023-04-14T11:11:56.977Z,2.77
2023-04-14T11:14:27.992Z,2.87
2023-04-14T11:17:04.141Z,2.37
2023-04-14T11:19:32.693Z,2.90
2023-04-14T11:21:59.838Z,3.27
2023-04-14T11:24:26.980Z,2.27
2023-04-14T11:26:55.478Z,3.30
2023-04-14T11:29:23.334Z,2.87
2023-04-14T11:32:04.476Z,3.70
2023-04-14T11:34:32.916Z,2.50
2023-04-14T11:37:03.015Z,2.80
2023-04-14T11:39:30.273Z,3.10
2023-04-14T11:42:00.544Z,2.10
2023-04-14T11:44:27.778Z,2.50
2023-04-14T11:46:54.972Z,2.03
2023-04-14T11:49:33.387Z,2.30
2023-04-14T11:52:05.329Z,1.70
2023-04-14T11:54:37.098Z,1.67
2023-04-14T11:57:11.851Z,1.30
2023-04-14T11:59:44.471Z,1.73
2023-04-14T12:02:30.831Z,1.07
2023-04-14T12:04:58.823Z,0.93
2023-04-14T12:07:29.672Z,0.93
2023-04-14T12:09:58.150Z,0.60
2023-04-14T12:12:28.823Z,0.50
2023-04-14T12:14:56.073Z,0.80
2023-04-14T12:17:23.785Z,0.93
2023-04-14T12:19:51.002Z,1.20
2023-04-14T12:22:38.404Z,0.80
2023-04-14T12:25:11.451Z,0.70
2023-04-14T12:27:39.380Z,1.33
2023-04-14T12:30:06.951Z,0.83
2023-04-14T12:32:41.573Z,0.93
2023-04-14T12:35:10.026Z,0.90
2023-04-14T12:37:38.613Z,0.97
2023-04-14T12:40:07.124Z,0.83
2023-04-14T12:42:54.115Z,1.03
2023-04-14T12:45:21.641Z,0.77
2023-04-14T12:47:56.388Z,0.97
2023-04-14T12:50:32.334Z,1.30
2023-04-14T12:53:01.268Z,0.60
2023-04-14T12:55:29.738Z,0.60
2023-04-14T12:57:58.484Z,1.50
2023-04-14T13:00:27.298Z,1.00
2023-04-14T13:02:55.647Z,1.00
2023-04-14T13:05:23.357Z,0.97
2023-04-14T13:07:50.473Z,0.70
2023-04-14T13:10:17.896Z,1.13
2023-04-14T13:12:45.270Z,0.50
2023-04-14T13:15:57.355Z,0.63
2023-04-14T13:18:00.820Z,0.90
2023-04-14T13:20:30.425Z,0.70
2023-04-14T13:22:57.675Z,0.87
2023-04-14T13:25:24.828Z,0.57
2023-04-14T13:27:52.453Z,0.30
2023-04-14T13:30:19.603Z,0.57
2023-04-14T13:32:46.845Z,0.67
2023-04-14T13:35:14.513Z,0.70
2023-04-14T13:37:42.903Z,0.80
2023-04-14T13:40:10.378Z,0.77
2023-04-14T13:42:37.510Z,0.63
2023-04-14T13:45:05.019Z,0.47
2023-04-14T13:47:32.310Z,0.53
2023-04-14T13:49:59.453Z,0.67
2023-04-14T13:52:26.618Z,0.40
2023-04-14T13:54:53.705Z,0.70
2023-04-14T13:57:22.362Z,0.60
2023-04-14T13:59:49.768Z,0.63
2023-04-14T14:02:17.013Z,0.33
2023-04-14T14:04:44.401Z,1.23
2023-04-14T14:07:11.646Z,0.60
2023-04-14T14:09:38.755Z,0.90
2023-04-14T14:12:06.326Z,0.50
2023-04-14T14:14:33.489Z,0.50
2023-04-14T14:17:01.692Z,0.80
2023-04-14T14:19:28.828Z,0.30
2023-04-14T14:21:55.935Z,0.67
2023-04-14T14:24:23.911Z,0.43
2023-04-14T14:26:51.086Z,0.60
2023-04-14T14:29:18.193Z,0.97
2023-04-14T14:31:45.473Z,0.40
2023-04-14T14:34:12.636Z,0.73
2023-04-14T14:36:39.759Z,0.33
2023-04-14T14:39:06.896Z,0.40
2023-04-14T14:41:34.095Z,0.50
2023-04-14T14:44:02.162Z,0.60
2023-04-14T14:46:29.535Z,0.60
2023-04-14T14:48:57.840Z,0.40
2023-04-14T14:51:26.144Z,0.40
2023-04-14T14:54:01.519Z,0.60
2023-04-14T14:56:36.062Z,0.67
2023-04-14T14:59:03.997Z,0.57
2023-04-14T15:01:31.685Z,0.50
2023-04-14T15:03:59.186Z,1.13
2023-04-14T15:06:27.672Z,0.50
2023-04-14T15:08:55.055Z,0.70
2023-04-14T15:11:22.305Z,0.50
2023-04-14T15:13:49.522Z,1.03
2023-04-14T15:16:16.701Z,0.60
2023-04-14T15:18:44.868Z,0.40
2023-04-14T15:21:12.043Z,0.57
2023-04-14T15:23:41.166Z,0.43
2023-04-14T15:26:08.332Z,0.67
2023-04-14T15:28:35.744Z,0.30
2023-04-14T15:31:03.511Z,0.33
2023-04-14T15:33:30.686Z,0.67
2023-04-14T15:35:57.870Z,0.20
2023-04-14T15:38:25.815Z,0.57
2023-04-14T15:40:54.195Z,0.80
2023-04-14T15:43:21.868Z,0.40
2023-04-14T15:45:49.016Z,0.77
2023-04-14T15:48:16.186Z,0.33
2023-04-14T15:50:44.990Z,0.50
2023-04-14T15:53:12.414Z,0.50
2023-04-14T15:55:40.273Z,0.60
2023-04-14T15:58:07.707Z,0.40
2023-04-14T16:00:34.813Z,0.53
2023-04-14T16:03:02.252Z,0.80
2023-04-14T16:05:29.736Z,0.57
2023-04-14T16:07:57.041Z,0.77
2023-04-14T16:10:24.151Z,0.90
2023-04-14T16:12:51.750Z,0.70
2023-04-14T16:15:18.987Z,0.83
2023-04-14T16:17:46.394Z,0.40
2023-04-14T16:20:14.458Z,1.00
2023-04-14T16:22:41.604Z,0.43
2023-04-14T16:25:08.946Z,0.43
2023-04-14T16:27:36.354Z,0.90
2023-04-14T16:30:03.822Z,0.70
2023-04-14T16:32:31.013Z,0.40
2023-04-14T16:34:58.171Z,0.87
2023-04-14T16:37:26.480Z,0.77
2023-04-14T16:39:55.536Z,0.60
2023-04-14T16:42:26.296Z,0.70
2023-04-14T16:44:55.931Z,0.97
2023-04-14T16:47:23.467Z,0.90
2023-04-14T16:49:51.654Z,0.50
2023-04-14T16:52:18.879Z,0.60
2023-04-14T16:54:46.133Z,0.77
2023-04-14T16:57:15.449Z,0.33
2023-04-14T16:59:42.916Z,0.73
2023-04-14T17:02:10.227Z,1.23
2023-04-14T17:04:37.641Z,1.20
2023-04-14T17:07:05.708Z,0.57
2023-04-14T17:09:32.947Z,0.40
2023-04-14T17:12:00.931Z,0.47
2023-04-14T17:14:28.075Z,0.33
2023-04-14T17:16:55.295Z,0.27
2023-04-14T17:19:22.874Z,1.13
2023-04-14T17:21:50.075Z,0.40
2023-04-14T17:24:17.408Z,0.50
2023-04-14T17:26:44.532Z,0.70
2023-04-14T17:29:11.732Z,0.30
2023-04-14T17:31:40.001Z,0.50
2023-04-14T17:34:10.747Z,0.20
2023-04-14T17:36:39.410Z,0.30
2023-04-14T17:39:08.356Z,0.50
2023-04-14T17:41:35.934Z,0.87
2023-04-14T17:44:03.468Z,1.10
2023-04-14T17:46:34.267Z,1.30
2023-04-14T17:49:02.075Z,0.50
2023-04-14T17:51:30.120Z,0.93
2023-04-14T17:53:57.608Z,1.20
2023-04-14T17:56:25.408Z,0.70
2023-04-14T17:58:52.790Z,0.83
2023-04-14T18:01:20.460Z,1.20
2023-04-14T18:03:47.656Z,1.00
2023-04-14T18:06:15.492Z,0.70
2023-04-14T18:08:42.791Z,0.80
2023-04-14T18:11:10.378Z,0.90
2023-04-14T18:13:37.480Z,0.90
2023-04-14T18:16:04.643Z,0.53
2023-04-14T18:18:32.702Z,0.40
2023-04-14T18:20:59.891Z,0.53
2023-04-14T18:23:27.106Z,0.70
2023-04-14T18:28:31.644Z,0.63
2023-04-14T18:30:59.350Z,0.53
2023-04-14T18:33:27.020Z,0.50
2023-04-14T18:35:55.184Z,0.47
2023-04-14T18:38:22.453Z,1.20
2023-04-14T18:40:50.479Z,0.60
2023-04-14T18:43:20.587Z,0.43
2023-04-14T18:45:48.038Z,0.77
2023-04-14T18:48:16.071Z,0.30
2023-04-14T18:50:43.772Z,0.40
2023-04-14T18:53:11.743Z,0.40
2023-04-14T18:55:44.276Z,0.30
2023-04-14T18:58:13.297Z,1.20
2023-04-14T19:00:43.160Z,0.67
2023-04-14T19:03:10.594Z,0.30
2023-04-14T19:05:38.358Z,0.73
2023-04-14T19:08:06.926Z,0.50
2023-04-14T19:10:34.578Z,0.60
2023-04-14T19:13:02.235Z,0.77
2023-04-14T19:15:29.386Z,0.60
2023-04-14T19:17:56.581Z,0.40
2023-04-14T19:20:24.520Z,0.30
2023-04-14T19:22:51.803Z,0.60
2023-04-14T19:25:19.410Z,0.63
2023-04-14T19:27:46.929Z,0.47
2023-04-14T19:30:14.220Z,0.73
2023-04-14T19:32:42.248Z,1.33
2023-04-14T19:35:10.016Z,0.50
2023-04-14T19:37:38.361Z,1.83
2023-04-14T19:40:07.585Z,1.27
2023-04-14T19:42:34.695Z,1.80
2023-04-14T19:45:02.073Z,1.03
2023-04-14T19:47:30.086Z,0.93
2023-04-14T19:50:02.729Z,0.50
2023-04-14T19:52:29.853Z,1.40
2023-04-14T19:54:57.421Z,0.70
2023-04-14T19:57:25.076Z,0.47
2023-04-14T19:59:52.189Z,0.90
2023-04-14T20:02:19.605Z,0.50
2023-04-14T20:04:48.803Z,0.93
2023-04-14T20:07:16.015Z,1.70
2023-04-14T20:09:47.219Z,0.70
2023-04-14T20:12:14.355Z,1.73
2023-04-14T20:14:41.688Z,0.40
2023-04-14T20:17:09.101Z,0.43
2023-04-14T20:19:36.908Z,0.60
2023-04-14T20:22:04.362Z,1.40
2023-04-14T20:24:32.018Z,1.90
2023-04-14T20:26:59.547Z,1.00
2023-04-14T20:29:27.113Z,0.83
2023-04-14T20:31:54.452Z,0.50
2023-04-14T20:34:21.639Z,0.40
2023-04-14T20:36:49.365Z,0.40
2023-04-14T20:39:16.519Z,0.60
2023-04-14T20:41:43.692Z,0.40
2023-04-14T20:44:11.277Z,0.57
2023-04-14T20:46:38.796Z,0.80
2023-04-14T20:49:06.096Z,0.50
2023-04-14T20:51:33.802Z,0.93
2023-04-14T20:54:02.340Z,1.37
2023-04-14T20:56:30.863Z,1.40
2023-04-14T20:58:59.104Z,0.70
2023-04-14T21:01:28.228Z,1.47
2023-04-14T21:03:56.223Z,0.50
2023-04-14T21:06:23.871Z,0.97
2023-04-14T21:08:51.554Z,0.50
2023-04-14T21:11:18.898Z,1.63
2023-04-14T21:15:30.572Z,0.60
2023-04-14T21:16:34.283Z,0.90
2023-04-14T21:19:05.253Z,0.80
2023-04-14T21:21:33.169Z,1.10
2023-04-14T21:24:01.016Z,0.73
2023-04-14T21:26:28.511Z,0.87
2023-04-14T21:28:56.511Z,0.90
2023-04-14T21:31:23.722Z,0.57
2023-04-14T21:33:51.173Z,0.47
2023-04-14T21:36:19.624Z,0.53
2023-04-14T21:38:47.280Z,1.33
2023-04-14T21:41:14.933Z,0.83
2023-04-14T21:43:42.562Z,0.83
2023-04-14T21:46:10.055Z,0.40
2023-04-14T21:48:37.505Z,1.13
2023-04-14T21:51:05.012Z,0.87
2023-04-14T21:53:34.480Z,0.70
2023-04-14T21:56:10.298Z,0.40
2023-04-14T21:58:39.749Z,0.53
2023-04-14T22:01:07.899Z,0.40
2023-04-14T22:03:37.355Z,0.73
2023-04-14T22:06:04.889Z,1.20
2023-04-14T22:08:32.907Z,0.40
2023-04-14T22:11:01.137Z,0.57
2023-04-14T22:13:28.553Z,1.70
2023-04-14T22:15:56.586Z,0.40
2023-04-14T22:18:24.751Z,0.30
2023-04-14T22:20:51.848Z,0.53
2023-04-14T22:23:18.965Z,0.40
2023-04-14T22:25:47.891Z,1.40
2023-04-14T22:28:15.290Z,1.10
2023-04-14T22:30:42.609Z,0.97
2023-04-14T22:33:09.829Z,0.70
2023-04-14T22:35:37.031Z,1.43
2023-04-14T22:38:04.186Z,0.60
2023-04-14T22:40:31.915Z,0.97
2023-04-14T22:42:59.102Z,0.67
2023-04-14T22:45:26.770Z,1.27
2023-04-14T22:47:53.932Z,0.40
2023-04-14T22:50:21.059Z,0.70
2023-04-14T22:52:48.195Z,2.07
2023-04-14T22:55:15.681Z,1.00
2023-04-14T22:57:42.833Z,1.07
2023-04-14T23:00:11.619Z,1.27
2023-04-14T23:02:41.405Z,0.90
2023-04-14T23:05:10.499Z,0.83
2023-04-14T23:07:38.169Z,1.40
2023-04-14T23:10:07.068Z,1.23
2023-04-14T23:12:34.504Z,0.43
2023-04-14T23:15:04.386Z,0.97
2023-04-14T23:17:33.720Z,0.67
2023-04-14T23:20:01.644Z,0.77
2023-04-14T23:22:29.510Z,0.40
2023-04-14T23:24:56.694Z,0.50
2023-04-14T23:27:24.204Z,0.30
2023-04-14T23:29:51.757Z,0.90
2023-04-14T23:32:19.403Z,0.60
2023-04-14T23:34:46.684Z,1.77
2023-04-14T23:37:13.962Z,1.37
2023-04-14T23:39:41.726Z,0.50
2023-04-14T23:42:09.059Z,1.27
2023-04-14T23:44:37.210Z,0.50
2023-04-14T23:47:05.820Z,0.83
2023-04-14T23:49:35.641Z,0.83
2023-04-14T23:52:04.155Z,0.70
2023-04-14T23:54:31.815Z,1.20
2023-04-14T23:56:58.964Z,0.40
2023-04-14T23:59:26.366Z,0.40
